Terminal Aerodrome Forecast
Issued by NWS Shreveport, LA

Home | Current Version | Previous Version | Text Only | Print | Product List | Glossary On
Versions: 1 2 3 4 5 6 7 8 9 10 11 12 13 14 15 16
000
FTUS44 KSHV 020500
TAFMLU
TAF
KMLU 020529Z 0206/0306 04005KT 3SM -DZ BR OVC003
      TEMPO 0207/0211 1 1/2SM -DZ BR
     FM021400 03005KT 5SM BR OVC006
     FM021600 04005KT P6SM OVC008
     FM021900 04006KT P6SM OVC015
     FM022200 05006KT P6SM BKN023
     FM030100 05004KT P6SM BKN025=

USA.gov is the U.S. government's official web portal to all federal, state and local government web resources and services.